Weather at Baylor Scott & White Medical Center Irving Heliport

Public forecast

Using degrees Fahrenheit for public forecast. Weather courtesy of forecast.io.

Closest aviation weather report (METAR) to Baylor Scott & White Medical Center Irving Heliport

Closest report is Dallas Fort Worth International Airport, 5.4 nm (9.9 km) NW.

2024/05/29 07:53 (retrieved 8 minutes ago)

KDFW 290753Z 17014KT 10SM -RA FEW030 FEW075 OVC130 22/20 A3000 RMK AO2 PRESFR SLP150 P0000 T02170200

Closest aviation forecast (TAF) to Baylor Scott & White Medical Center Irving Heliport

Closest forecast is Dallas Fort Worth International Airport, 5.4 nm (9.9 km) NW.

2024/05/29 06:22 (retrieved 2 hours ago)

TAF KDFW 290520Z 2906/3012 36007KT P6SM VCSH SCT045 SCT110 TEMPO 2906/2907 33020KT 5SM -SHRA BKN050 FM291300 11006KT 6SM -SHRA BR VCTS OVC020CB FM291900 12008KT P6SM VCSH BKN045 FM300300 13006KT P6SM VCTS BKN035CB OVC100